createdAt,value
2022-08-04T00:02:24.072Z,3.90
2022-08-04T00:04:58.994Z,4.40
2022-08-04T00:07:44.927Z,4.40
2022-08-04T00:10:16.994Z,3.90
2022-08-04T00:12:54.774Z,4.20
2022-08-04T00:15:24.283Z,4.10
2022-08-04T00:17:59.362Z,4.50
2022-08-04T00:20:31.937Z,4.50
2022-08-04T00:23:01.853Z,4.20
2022-08-04T00:25:30.646Z,4.20
2022-08-04T00:28:01.672Z,4.00
2022-08-04T00:30:30.167Z,4.30
2022-08-04T00:32:58.752Z,4.40
2022-08-04T00:35:32.899Z,3.80
2022-08-04T00:38:02.115Z,4.30
2022-08-04T00:40:41.024Z,4.50
2022-08-04T00:43:18.908Z,4.20
2022-08-04T00:46:28.125Z,4.00
2022-08-04T00:49:35.356Z,5.30
2022-08-04T00:52:31.638Z,4.00
2022-08-04T00:55:23.026Z,3.90
2022-08-04T00:58:19.007Z,4.20
2022-08-04T01:00:54.595Z,4.00
2022-08-04T01:03:44.979Z,4.10
2022-08-04T01:06:21.830Z,3.70
2022-08-04T01:09:11.115Z,4.00
2022-08-04T01:12:04.820Z,4.20
2022-08-04T01:14:52.620Z,3.80
2022-08-04T01:17:32.708Z,3.80
2022-08-04T01:20:06.686Z,3.90
2022-08-04T01:23:21.526Z,3.90
2022-08-04T01:26:42.425Z,3.90
2022-08-04T01:29:08.074Z,3.80
2022-08-04T01:31:47.118Z,4.10
2022-08-04T01:34:19.440Z,4.10
2022-08-04T01:36:52.463Z,3.90
2022-08-04T01:39:39.873Z,3.80
2022-08-04T01:42:09.787Z,3.90
2022-08-04T01:44:40.863Z,4.10
2022-08-04T01:49:40.691Z,3.70
2022-08-04T01:52:10.275Z,3.80
2022-08-04T01:54:42.635Z,3.60
2022-08-04T01:57:38.325Z,3.90
2022-08-04T02:00:01.010Z,3.60
2022-08-04T02:02:33.052Z,4.30
2022-08-04T02:05:01.752Z,4.00
2022-08-04T02:07:40.343Z,3.50
2022-08-04T02:10:17.541Z,3.90
2022-08-04T02:13:07.625Z,3.80
2022-08-04T02:15:45.856Z,4.00
2022-08-04T02:18:20.477Z,3.80
2022-08-04T02:20:52.252Z,3.60
2022-08-04T02:23:30.951Z,3.90
2022-08-04T02:26:03.067Z,3.80
2022-08-04T02:28:39.876Z,3.60
2022-08-04T02:31:18.769Z,3.80
2022-08-04T02:33:54.967Z,3.70
2022-08-04T02:36:28.544Z,3.70
2022-08-04T02:39:00.668Z,3.70
2022-08-04T02:41:32.369Z,3.30
2022-08-04T02:44:02.344Z,3.50
2022-08-04T02:46:32.223Z,3.90
2022-08-04T02:49:03.252Z,3.30
2022-08-04T02:54:05.183Z,3.40
2022-08-04T02:56:35.300Z,3.80
2022-08-04T02:59:07.833Z,3.50
2022-08-04T03:01:36.051Z,3.30
2022-08-04T03:04:25.090Z,3.80
2022-08-04T03:07:20.990Z,3.90
2022-08-04T03:10:28.612Z,3.60
2022-08-04T03:13:37.646Z,3.60
2022-08-04T03:16:32.626Z,3.30
2022-08-04T03:19:38.137Z,3.20
2022-08-04T03:22:41.952Z,3.60
2022-08-04T03:25:56.700Z,3.30
2022-08-04T03:29:04.014Z,3.20
2022-08-04T03:32:06.824Z,3.20
2022-08-04T03:35:03.130Z,3.50
2022-08-04T03:37:57.950Z,3.20
2022-08-04T03:40:50.929Z,3.10
2022-08-04T03:44:00.491Z,2.90
2022-08-04T03:46:52.922Z,3.40
2022-08-04T03:50:05.113Z,3.00
2022-08-04T03:53:11.254Z,3.30
2022-08-04T03:56:00.097Z,3.30
2022-08-04T03:58:52.656Z,3.40
2022-08-04T04:02:02.892Z,3.40
2022-08-04T04:04:59.254Z,3.10
2022-08-04T04:07:59.889Z,3.80
2022-08-04T04:10:58.190Z,3.50
2022-08-04T04:14:12.730Z,4.10
2022-08-04T04:17:08.115Z,3.40
2022-08-04T04:19:59.603Z,3.60
2022-08-04T04:23:05.358Z,3.60
2022-08-04T04:25:49.926Z,3.60
2022-08-04T04:28:49.909Z,3.60
2022-08-04T04:31:37.784Z,3.40
2022-08-04T04:34:26.275Z,3.60
2022-08-04T04:37:13.441Z,3.20
2022-08-04T04:39:51.867Z,3.40
2022-08-04T04:42:38.113Z,3.60
2022-08-04T04:45:29.249Z,3.30
2022-08-04T04:48:10.530Z,3.50
2022-08-04T04:51:08.599Z,3.30
2022-08-04T04:53:47.377Z,3.50
2022-08-04T04:56:23.050Z,3.90
2022-08-04T04:58:53.071Z,3.50
2022-08-04T05:01:54.682Z,3.90
2022-08-04T05:08:43.927Z,3.50
2022-08-04T05:11:09.352Z,3.30
2022-08-04T05:14:34.481Z,3.70
2022-08-04T05:16:35.896Z,3.50
2022-08-04T05:19:18.889Z,3.70
2022-08-04T05:21:50.467Z,3.80
2022-08-04T05:24:21.124Z,3.40
2022-08-04T05:26:56.102Z,4.30
2022-08-04T05:29:30.959Z,3.80
2022-08-04T05:32:16.073Z,3.90
2022-08-04T05:34:49.148Z,4.30
2022-08-04T05:37:19.639Z,4.10
2022-08-04T05:39:53.799Z,4.30
2022-08-04T05:42:23.441Z,4.20
2022-08-04T05:44:52.499Z,4.30
2022-08-04T05:47:21.647Z,4.40
2022-08-04T05:50:02.361Z,4.20
2022-08-04T05:52:33.982Z,4.30
2022-08-04T05:55:02.764Z,4.20
2022-08-04T05:57:31.455Z,4.10
2022-08-04T06:00:14.834Z,4.40
2022-08-04T06:02:53.707Z,4.40
2022-08-04T06:05:23.772Z,3.90
2022-08-04T06:08:10.931Z,4.20
2022-08-04T06:10:49.574Z,4.30
2022-08-04T06:13:49.376Z,3.90
2022-08-04T06:16:29.809Z,4.40
2022-08-04T06:19:59.457Z,4.80
2022-08-04T06:21:58.716Z,4.50
2022-08-04T06:24:30.807Z,4.70
2022-08-04T06:27:00.029Z,5.50
2022-08-04T06:29:33.930Z,5.10
2022-08-04T06:32:28.279Z,5.00
2022-08-04T06:35:01.819Z,5.40
2022-08-04T06:37:41.869Z,5.80
2022-08-04T06:40:30.076Z,5.90
2022-08-04T06:43:02.419Z,6.10
2022-08-04T06:45:33.527Z,6.50
2022-08-04T06:48:02.481Z,6.90
2022-08-04T06:51:29.706Z,6.20
2022-08-04T06:53:19.943Z,6.30
2022-08-04T06:55:50.071Z,7.20
2022-08-04T06:58:19.790Z,6.30
2022-08-04T07:01:13.491Z,5.90
2022-08-04T07:03:42.402Z,6.40
2022-08-04T07:06:14.074Z,6.80
2022-08-04T07:08:46.382Z,6.90
2022-08-04T07:11:19.744Z,6.40
2022-08-04T07:13:51.726Z,6.10
2022-08-04T07:16:30.816Z,6.30
2022-08-04T07:19:10.522Z,6.00
2022-08-04T07:21:42.497Z,6.30
2022-08-04T07:24:35.135Z,6.60
2022-08-04T07:27:06.213Z,6.40
2022-08-04T07:32:07.926Z,5.90
2022-08-04T07:34:41.824Z,6.10
2022-08-04T07:37:10.781Z,6.30
2022-08-04T07:39:48.014Z,6.70
2022-08-04T07:42:19.576Z,6.20
2022-08-04T07:44:48.052Z,6.90
2022-08-04T07:47:16.250Z,7.10
2022-08-04T07:49:54.935Z,7.40
2022-08-04T07:52:26.157Z,6.80
2022-08-04T07:54:54.636Z,6.20
2022-08-04T07:57:41.624Z,6.30
2022-08-04T08:00:14.126Z,5.70
2022-08-04T08:02:45.320Z,6.90
2022-08-04T08:05:16.173Z,6.50
2022-08-04T08:07:50.131Z,6.00
2022-08-04T08:10:23.162Z,5.90
2022-08-04T08:12:52.441Z,5.30
2022-08-04T08:15:21.484Z,6.10
2022-08-04T08:17:58.218Z,6.10
2022-08-04T08:20:33.307Z,5.50
2022-08-04T08:23:03.289Z,5.90
2022-08-04T08:25:32.795Z,5.90
2022-08-04T08:28:02.336Z,6.00
2022-08-04T08:30:32.232Z,5.00
2022-08-04T08:33:05.431Z,5.00
2022-08-04T08:35:52.890Z,5.20
2022-08-04T08:38:37.679Z,4.80
2022-08-04T08:41:30.623Z,5.60
2022-08-04T08:44:11.125Z,4.50
2022-08-04T08:47:04.200Z,4.40
2022-08-04T08:50:02.980Z,4.40
2022-08-04T08:53:00.969Z,4.80
2022-08-04T08:55:42.858Z,4.50
2022-08-04T08:58:43.118Z,4.40
2022-08-04T09:01:31.041Z,4.40
2022-08-04T09:04:26.694Z,5.20
2022-08-04T09:07:13.466Z,4.30
2022-08-04T09:09:52.977Z,4.20
2022-08-04T09:12:27.746Z,4.50
2022-08-04T09:15:04.192Z,4.60
2022-08-04T09:17:40.545Z,4.50
2022-08-04T09:20:18.804Z,5.20
2022-08-04T09:22:51.353Z,5.10
2022-08-04T09:25:24.940Z,5.40
2022-08-04T09:27:54.977Z,4.50
2022-08-04T09:30:32.732Z,5.40
2022-08-04T09:33:16.300Z,5.10
2022-08-04T09:35:57.340Z,4.60
2022-08-04T09:38:35.550Z,4.80
2022-08-04T09:41:20.768Z,4.70
2022-08-04T09:44:50.181Z,5.20
2022-08-04T09:46:59.708Z,5.10
2022-08-04T09:49:36.187Z,5.00
2022-08-04T09:52:11.420Z,5.50
2022-08-04T09:54:50.586Z,5.00
2022-08-04T09:57:37.546Z,4.90
2022-08-04T10:00:08.223Z,5.20
2022-08-04T10:02:44.907Z,4.90
2022-08-04T10:05:16.697Z,5.00
2022-08-04T10:08:15.733Z,5.50
2022-08-04T10:10:56.664Z,5.50
2022-08-04T10:13:39.190Z,6.00
2022-08-04T10:16:27.038Z,5.40
2022-08-04T10:19:07.826Z,5.10
2022-08-04T10:22:27.454Z,5.30
2022-08-04T10:25:00.493Z,5.70
2022-08-04T10:27:38.510Z,5.30
2022-08-04T10:30:13.084Z,5.40
2022-08-04T10:32:53.563Z,5.00
2022-08-04T10:35:27.512Z,5.10
2022-08-04T10:38:09.931Z,4.80
2022-08-04T10:40:44.716Z,5.80
2022-08-04T10:43:30.412Z,5.40
2022-08-04T10:46:05.613Z,5.30
2022-08-04T10:48:45.805Z,5.50
2022-08-04T10:51:25.704Z,5.90
2022-08-04T10:53:59.589Z,5.20
2022-08-04T10:56:35.220Z,5.50
2022-08-04T10:59:08.499Z,5.30
2022-08-04T11:02:00.164Z,5.20
2022-08-04T11:04:43.193Z,5.30
2022-08-04T11:07:13.527Z,5.60
2022-08-04T11:09:44.487Z,5.60
2022-08-04T11:12:19.055Z,5.10
2022-08-04T11:14:53.083Z,5.00
2022-08-04T11:17:27.778Z,4.60
2022-08-04T11:20:34.192Z,4.80
2022-08-04T11:23:07.864Z,4.90
2022-08-04T11:25:51.790Z,4.60
2022-08-04T11:28:30.648Z,5.20
2022-08-04T11:31:05.164Z,5.10
2022-08-04T11:33:40.597Z,5.50
2022-08-04T11:36:20.362Z,5.80
2022-08-04T11:39:00.078Z,5.50
2022-08-04T11:44:11.981Z,5.20
2022-08-04T11:46:43.238Z,4.30
2022-08-04T11:49:24.191Z,5.20
2022-08-04T11:51:55.644Z,4.60
2022-08-04T11:54:24.193Z,4.40
2022-08-04T11:56:55.759Z,5.40
2022-08-04T11:59:27.437Z,4.50
2022-08-04T12:02:20.571Z,4.70
2022-08-04T12:04:57.633Z,4.60
2022-08-04T12:07:43.072Z,4.20
2022-08-04T12:10:42.272Z,5.10
2022-08-04T12:13:24.109Z,4.10
2022-08-04T12:16:10.993Z,4.20
2022-08-04T12:18:42.557Z,4.80
2022-08-04T12:21:18.017Z,4.80
2022-08-04T12:23:57.878Z,4.10
2022-08-04T12:26:32.593Z,4.10
2022-08-04T12:29:10.982Z,4.20
2022-08-04T12:31:46.594Z,3.50
2022-08-04T12:34:25.209Z,4.50
2022-08-04T12:37:04.773Z,4.20
2022-08-04T12:39:35.165Z,4.70
2022-08-04T12:42:30.612Z,4.40
2022-08-04T12:45:00.200Z,4.60
2022-08-04T12:53:00.407Z,4.60
2022-08-04T12:55:25.043Z,4.70
2022-08-04T12:57:54.702Z,4.60
2022-08-04T13:00:35.380Z,4.60
2022-08-04T13:03:09.862Z,4.70
2022-08-04T13:05:44.915Z,4.50
2022-08-04T13:08:21.111Z,4.50
2022-08-04T13:10:51.934Z,5.10
2022-08-04T13:13:24.038Z,4.50
2022-08-04T13:15:59.792Z,4.70
2022-08-04T13:18:32.395Z,4.60
2022-08-04T13:21:20.147Z,4.50
2022-08-04T13:24:19.647Z,4.40
2022-08-04T13:26:54.619Z,4.50
2022-08-04T13:29:58.690Z,4.40
2022-08-04T13:32:24.047Z,4.90
2022-08-04T13:34:55.558Z,4.60
2022-08-04T13:37:26.917Z,4.40
2022-08-04T13:39:57.821Z,5.10
2022-08-04T13:42:26.857Z,4.70
2022-08-04T13:44:58.009Z,5.10
2022-08-04T13:47:30.089Z,4.80
2022-08-04T13:50:18.023Z,4.70
2022-08-04T13:52:51.225Z,4.90
2022-08-04T13:55:21.861Z,5.10
2022-08-04T13:57:54.740Z,5.90
2022-08-04T14:00:29.139Z,5.70
2022-08-04T14:03:02.547Z,5.70
2022-08-04T14:05:58.957Z,5.40
2022-08-04T14:08:24.709Z,5.30
2022-08-04T14:10:57.058Z,5.60
2022-08-04T14:13:41.930Z,5.60
2022-08-04T14:16:18.392Z,5.90
2022-08-04T14:18:46.571Z,5.90
2022-08-04T14:21:16.231Z,5.60
2022-08-04T14:23:50.447Z,5.40
2022-08-04T14:26:21.623Z,5.60
2022-08-04T14:29:27.053Z,5.20
2022-08-04T14:32:04.446Z,5.00
2022-08-04T14:34:41.397Z,5.10
2022-08-04T14:37:17.698Z,4.80
2022-08-04T14:40:17.621Z,5.50
2022-08-04T14:42:44.305Z,5.40
2022-08-04T14:45:12.546Z,4.80
2022-08-04T14:47:52.512Z,5.20
2022-08-04T14:50:32.439Z,5.00
2022-08-04T14:53:04.969Z,5.30
2022-08-04T14:55:32.976Z,5.40
2022-08-04T14:58:34.692Z,5.90
2022-08-04T15:00:49.644Z,5.40
2022-08-04T15:03:21.081Z,5.50
2022-08-04T15:06:00.318Z,4.80
2022-08-04T15:08:33.661Z,5.40
2022-08-04T15:11:02.338Z,5.60
2022-08-04T15:13:31.738Z,5.10
2022-08-04T15:16:07.540Z,5.30
2022-08-04T15:18:40.342Z,5.70
2022-08-04T15:21:10.373Z,5.20
2022-08-04T15:23:39.713Z,5.30
2022-08-04T15:26:13.711Z,5.20
2022-08-04T15:28:46.933Z,5.30
2022-08-04T15:32:07.469Z,5.30
2022-08-04T15:34:07.171Z,5.20
2022-08-04T15:36:56.476Z,5.70
2022-08-04T15:39:35.144Z,5.70
2022-08-04T15:42:18.881Z,6.00
2022-08-04T15:45:15.206Z,5.70
2022-08-04T15:47:53.717Z,6.00
2022-08-04T15:50:28.725Z,5.80
2022-08-04T15:53:10.429Z,5.70
2022-08-04T15:55:42.145Z,5.80
2022-08-04T15:58:12.125Z,5.70
2022-08-04T16:01:16.447Z,6.60
2022-08-04T16:03:59.021Z,5.80
2022-08-04T16:06:49.851Z,5.90
2022-08-04T16:09:46.149Z,5.60
2022-08-04T16:12:54.251Z,5.70
2022-08-04T16:15:42.672Z,5.60
2022-08-04T16:18:26.133Z,5.20
2022-08-04T16:20:59.195Z,5.40
2022-08-04T16:24:00.662Z,5.30
2022-08-04T16:27:00.236Z,5.30
2022-08-04T16:29:38.977Z,5.40
2022-08-04T16:32:25.481Z,5.10
2022-08-04T16:34:59.012Z,5.60
2022-08-04T16:37:33.075Z,5.20
2022-08-04T16:40:31.720Z,5.40
2022-08-04T16:43:05.662Z,5.50
2022-08-04T16:45:54.194Z,5.40
2022-08-04T16:48:27.337Z,5.00
2022-08-04T16:50:58.197Z,4.90
2022-08-04T16:54:02.651Z,5.70
2022-08-04T16:56:29.808Z,5.40
2022-08-04T16:59:05.074Z,5.00
2022-08-04T17:01:34.493Z,5.40
2022-08-04T17:04:07.654Z,5.80
2022-08-04T17:06:38.772Z,5.10
2022-08-04T17:09:11.717Z,5.30
2022-08-04T17:11:39.977Z,5.80
2022-08-04T17:14:07.855Z,5.80
2022-08-04T17:16:37.938Z,5.20
2022-08-04T17:19:19.983Z,5.20
2022-08-04T17:21:58.892Z,5.20
2022-08-04T17:24:30.818Z,5.00
2022-08-04T17:26:59.331Z,5.20
2022-08-04T17:29:44.383Z,5.00
2022-08-04T17:32:18.827Z,5.30
2022-08-04T17:34:51.299Z,5.70
2022-08-04T17:37:39.470Z,5.20
2022-08-04T17:40:12.183Z,5.20
2022-08-04T17:42:41.722Z,4.60
2022-08-04T17:48:00.583Z,5.30
2022-08-04T17:50:34.200Z,5.70
2022-08-04T17:53:11.965Z,5.10
2022-08-04T17:55:43.152Z,5.00
2022-08-04T18:01:23.828Z,5.00
2022-08-04T18:03:57.313Z,5.30
2022-08-04T18:06:26.706Z,6.00
2022-08-04T18:08:58.815Z,5.90
2022-08-04T18:11:29.864Z,5.60
2022-08-04T18:14:10.706Z,5.30
2022-08-04T18:16:44.160Z,5.70
2022-08-04T18:19:13.888Z,5.20
2022-08-04T18:21:45.540Z,5.40
2022-08-04T18:24:14.261Z,5.50
2022-08-04T18:26:42.400Z,5.50
2022-08-04T18:29:15.625Z,4.90
2022-08-04T18:32:00.222Z,5.20
2022-08-04T18:34:28.217Z,5.70
2022-08-04T18:36:59.089Z,5.30
2022-08-04T18:40:17.232Z,5.30
2022-08-04T18:42:17.271Z,5.70
2022-08-04T18:44:53.070Z,5.50
2022-08-04T18:47:23.898Z,5.20
2022-08-04T18:50:40.262Z,5.40
2022-08-04T18:52:46.578Z,5.40
2022-08-04T18:55:55.814Z,5.40
2022-08-04T18:58:12.728Z,5.50
2022-08-04T19:03:33.071Z,5.40
2022-08-04T19:06:01.573Z,5.50
2022-08-04T19:08:34.215Z,5.10
2022-08-04T19:11:19.442Z,4.90
2022-08-04T19:13:57.789Z,5.20
2022-08-04T19:16:27.387Z,5.30
2022-08-04T19:18:56.857Z,5.50
2022-08-04T19:22:00.351Z,5.30
2022-08-04T19:24:32.666Z,5.30
2022-08-04T19:27:02.043Z,5.10
2022-08-04T19:29:37.765Z,5.40
2022-08-04T19:32:14.816Z,4.90
2022-08-04T19:34:46.169Z,5.50
2022-08-04T19:37:55.991Z,5.00
2022-08-04T19:40:05.508Z,5.20
2022-08-04T19:42:34.710Z,4.90
2022-08-04T19:45:03.106Z,4.90
2022-08-04T19:48:21.473Z,4.60
2022-08-04T19:50:24.295Z,4.60
2022-08-04T19:52:52.909Z,5.00
2022-08-04T19:55:37.426Z,4.80
2022-08-04T19:58:08.485Z,4.50
2022-08-04T20:00:37.906Z,4.80
2022-08-04T20:05:55.980Z,4.40
2022-08-04T20:08:26.285Z,4.80
2022-08-04T20:10:56.233Z,5.00
2022-08-04T20:13:36.917Z,4.20
2022-08-04T20:16:28.553Z,4.40
2022-08-04T20:19:00.555Z,4.50
2022-08-04T20:21:36.770Z,4.70
2022-08-04T20:24:40.400Z,4.40
2022-08-04T20:27:14.654Z,4.90
2022-08-04T20:29:46.152Z,4.40
2022-08-04T20:32:19.246Z,4.40
2022-08-04T20:34:48.256Z,4.60
2022-08-04T20:37:18.994Z,4.40
2022-08-04T20:39:54.978Z,4.20
2022-08-04T20:42:27.428Z,4.30
2022-08-04T20:45:02.112Z,4.50
2022-08-04T20:47:35.835Z,4.40
2022-08-04T20:50:05.751Z,4.50
2022-08-04T20:52:38.808Z,4.60
2022-08-04T20:55:09.394Z,4.00
2022-08-04T20:57:49.451Z,4.30
2022-08-04T21:00:26.357Z,4.60
2022-08-04T21:02:54.490Z,4.90
2022-08-04T21:05:23.067Z,4.30
2022-08-04T21:07:50.727Z,4.50
2022-08-04T21:10:21.805Z,4.00
2022-08-04T21:12:50.097Z,4.10
2022-08-04T21:15:24.817Z,4.40
2022-08-04T21:17:57.454Z,4.20
2022-08-04T21:20:28.607Z,4.10
2022-08-04T21:25:44.949Z,4.00
2022-08-04T21:28:20.163Z,4.40
2022-08-04T21:33:24.334Z,4.50
2022-08-04T21:36:12.504Z,4.80
2022-08-04T21:38:41.785Z,4.40
2022-08-04T21:41:24.329Z,4.80
2022-08-04T21:43:53.323Z,4.60
2022-08-04T21:46:21.069Z,4.40
2022-08-04T21:48:49.245Z,4.00
2022-08-04T21:51:55.848Z,4.10
2022-08-04T21:54:09.331Z,4.40
2022-08-04T21:59:30.677Z,4.40
2022-08-04T22:02:01.103Z,4.30
2022-08-04T22:04:29.829Z,4.00
2022-08-04T22:06:58.009Z,5.10
2022-08-04T22:09:38.737Z,5.30
2022-08-04T22:12:11.841Z,5.40
2022-08-04T22:14:40.624Z,5.50
2022-08-04T22:17:13.879Z,5.50
2022-08-04T22:19:55.413Z,4.60
2022-08-04T22:22:27.085Z,4.40
2022-08-04T22:25:01.710Z,4.20
2022-08-04T22:27:55.319Z,3.70
2022-08-04T22:30:23.913Z,4.80
2022-08-04T22:32:52.432Z,4.20
2022-08-04T22:35:44.340Z,4.80
2022-08-04T22:38:24.395Z,4.60
2022-08-04T22:40:58.630Z,5.00
2022-08-04T22:43:32.204Z,4.40
2022-08-04T22:46:01.803Z,4.30
2022-08-04T22:48:32.101Z,4.80
2022-08-04T22:51:00.313Z,4.60
2022-08-04T22:53:28.840Z,4.60
2022-08-04T22:56:06.854Z,4.90
2022-08-04T22:58:40.269Z,4.40
2022-08-04T23:01:08.663Z,4.70
2022-08-04T23:03:38.385Z,4.20
2022-08-04T23:06:11.077Z,4.30
2022-08-04T23:08:43.139Z,4.30
2022-08-04T23:11:14.747Z,4.70
2022-08-04T23:13:43.077Z,5.10
2022-08-04T23:16:11.557Z,5.10
2022-08-04T23:18:42.443Z,4.90
2022-08-04T23:21:16.811Z,5.00
2022-08-04T23:23:46.877Z,4.90
2022-08-04T23:26:27.407Z,4.80
2022-08-04T23:28:56.280Z,4.80
2022-08-04T23:31:24.414Z,7.80
2022-08-04T23:33:52.607Z,6.80
2022-08-04T23:36:26.294Z,7.00
2022-08-04T23:39:00.725Z,5.80
2022-08-04T23:41:54.534Z,6.60
2022-08-04T23:44:24.652Z,6.50
2022-08-04T23:46:59.011Z,6.40
2022-08-04T23:49:40.531Z,6.00
2022-08-04T23:52:23.558Z,5.70
2022-08-04T23:54:58.557Z,5.30
2022-08-04T23:58:05.131Z,6.60
